createdAt,value
2022-12-13T00:01:35.332Z,-5.10
2022-12-13T00:04:05.705Z,-5.20
2022-12-13T00:06:33.817Z,-5.20
2022-12-13T00:09:02.525Z,-5.20
2022-12-13T00:11:30.369Z,-5.20
2022-12-13T00:13:58.309Z,-5.00
2022-12-13T00:16:28.520Z,-5.00
2022-12-13T00:18:58.449Z,-5.00
2022-12-13T00:21:28.641Z,-5.00
2022-12-13T00:23:56.630Z,-5.00
2022-12-13T00:26:27.861Z,-4.90
2022-12-13T00:28:55.856Z,-4.80
2022-12-13T00:34:15.012Z,-4.90
2022-12-13T00:36:42.840Z,-5.10
2022-12-13T00:39:13.786Z,-5.20
2022-12-13T00:41:41.836Z,-5.10
2022-12-13T00:44:11.416Z,-5.20
2022-12-13T00:46:39.967Z,-5.10
2022-12-13T00:49:08.218Z,-5.10
2022-12-13T00:51:37.788Z,-5.00
2022-12-13T00:54:05.715Z,-5.20
2022-12-13T00:56:34.704Z,-5.30
2022-12-13T00:59:02.573Z,-5.30
2022-12-13T01:01:32.978Z,-5.30
2022-12-13T01:04:03.292Z,-5.50
2022-12-13T01:06:35.016Z,-5.50
2022-12-13T01:09:05.401Z,-5.40
2022-12-13T01:11:33.519Z,-5.40
2022-12-13T01:14:01.561Z,-5.50
2022-12-13T01:16:29.423Z,-5.30
2022-12-13T01:18:58.184Z,-5.50
2022-12-13T01:21:26.097Z,-5.60
2022-12-13T01:23:53.983Z,-5.30
2022-12-13T01:26:23.224Z,-5.20
2022-12-13T01:28:51.879Z,-5.10
2022-12-13T01:31:21.316Z,-5.20
2022-12-13T01:33:49.927Z,-5.30
2022-12-13T01:36:18.953Z,-5.30
2022-12-13T01:38:47.195Z,-5.30
2022-12-13T01:41:17.560Z,-5.40
2022-12-13T01:43:57.508Z,-5.50
2022-12-13T01:46:25.476Z,-5.60
2022-12-13T01:49:04.521Z,-5.60
2022-12-13T01:51:37.274Z,-5.70
2022-12-13T01:54:07.557Z,-5.60
2022-12-13T01:56:39.856Z,-5.50
2022-12-13T01:59:11.739Z,-5.50
2022-12-13T02:01:40.365Z,-5.50
2022-12-13T02:04:08.859Z,-5.50
2022-12-13T02:06:39.533Z,-5.60
2022-12-13T02:09:09.192Z,-5.70
2022-12-13T02:11:39.792Z,-5.70
2022-12-13T02:14:09.806Z,-5.60
2022-12-13T02:16:47.978Z,-5.60
2022-12-13T02:19:47.400Z,-5.70
2022-12-13T02:22:34.017Z,-5.70
2022-12-13T02:25:19.526Z,-5.70
2022-12-13T02:28:30.814Z,-5.80
2022-12-13T02:31:09.975Z,-5.70
2022-12-13T02:33:51.346Z,-5.80
2022-12-13T02:36:26.203Z,-5.80
2022-12-13T02:39:00.238Z,-5.70
2022-12-13T02:41:34.364Z,-5.80
2022-12-13T02:44:21.759Z,-5.70
2022-12-13T02:46:55.880Z,-5.80
2022-12-13T02:49:26.564Z,-5.90
2022-12-13T02:51:55.420Z,-5.80
2022-12-13T02:54:24.581Z,-5.80
2022-12-13T02:56:56.603Z,-5.70
2022-12-13T02:59:26.958Z,-5.60
2022-12-13T03:02:10.457Z,-5.50
2022-12-13T03:05:05.455Z,-5.70
2022-12-13T03:07:42.333Z,-5.70
2022-12-13T03:10:16.776Z,-5.70
2022-12-13T03:13:10.794Z,-5.70
2022-12-13T03:15:45.935Z,-5.80
2022-12-13T03:18:18.901Z,-5.70
2022-12-13T03:20:48.507Z,-5.70
2022-12-13T03:23:17.256Z,-5.70
2022-12-13T03:25:46.797Z,-5.70
2022-12-13T03:28:14.669Z,-5.70
2022-12-13T03:30:42.524Z,-5.70
2022-12-13T03:33:10.378Z,-5.60
2022-12-13T03:35:44.628Z,-5.60
2022-12-13T03:38:21.881Z,-5.40
2022-12-13T03:40:52.884Z,-5.40
2022-12-13T03:43:22.361Z,-5.40
2022-12-13T03:45:50.851Z,-5.40
2022-12-13T03:48:22.339Z,-5.70
2022-12-13T03:50:53.630Z,-5.60
2022-12-13T03:53:22.389Z,-5.50
2022-12-13T03:56:01.441Z,-5.50
2022-12-13T03:58:35.236Z,-5.40
2022-12-13T04:01:05.595Z,-5.50
2022-12-13T04:03:33.519Z,-5.50
2022-12-13T04:06:04.105Z,-5.30
2022-12-13T04:08:32.082Z,-5.40
2022-12-13T04:10:59.928Z,-5.40
2022-12-13T04:13:32.496Z,-5.40
2022-12-13T04:16:00.557Z,-5.30
2022-12-13T04:18:28.764Z,-5.20
2022-12-13T04:20:57.317Z,-5.20
2022-12-13T04:23:26.578Z,-5.50
2022-12-13T04:25:54.612Z,-5.30
2022-12-13T04:28:23.291Z,-5.30
2022-12-13T04:30:52.704Z,-5.30
2022-12-13T04:33:22.060Z,-5.30
2022-12-13T04:35:50.349Z,-5.30
2022-12-13T04:38:18.603Z,-5.30
2022-12-13T04:40:47.841Z,-5.40
2022-12-13T04:43:15.734Z,-5.50
2022-12-13T04:45:43.779Z,-5.40
2022-12-13T04:48:11.821Z,-5.40
2022-12-13T04:50:39.665Z,-5.60
2022-12-13T04:53:07.496Z,-5.70
2022-12-13T04:55:35.370Z,-5.60
2022-12-13T04:58:04.552Z,-5.50
2022-12-13T05:00:32.502Z,-5.50
2022-12-13T05:03:00.453Z,-5.60
2022-12-13T05:05:28.296Z,-5.50
2022-12-13T05:07:56.720Z,-5.50
2022-12-13T05:10:33.926Z,-5.50
2022-12-13T05:13:07.503Z,-5.50
2022-12-13T05:15:35.538Z,-5.60
2022-12-13T05:18:10.757Z,-5.40
2022-12-13T05:20:40.128Z,-5.40
2022-12-13T05:23:08.345Z,-5.50
2022-12-13T05:25:36.812Z,-5.60
2022-12-13T05:28:08.718Z,-5.50
2022-12-13T05:30:55.477Z,-5.50
2022-12-13T05:33:24.487Z,-5.60
2022-12-13T05:35:57.657Z,-5.60
2022-12-13T05:38:27.820Z,-5.60
2022-12-13T05:40:55.658Z,-5.70
2022-12-13T05:43:24.940Z,-5.70
2022-12-13T05:46:11.870Z,-5.90
2022-12-13T05:48:39.805Z,-5.80
2022-12-13T05:51:10.438Z,-5.70
2022-12-13T05:53:39.487Z,-5.80
2022-12-13T05:56:08.062Z,-6.00
2022-12-13T05:58:38.100Z,-5.80
2022-12-13T06:01:07.808Z,-5.90
2022-12-13T06:03:35.980Z,-5.90
2022-12-13T06:06:04.683Z,-5.90
2022-12-13T06:08:32.911Z,-5.90
2022-12-13T06:11:11.116Z,-6.00
2022-12-13T06:13:43.479Z,-6.10
2022-12-13T06:16:21.669Z,-6.10
2022-12-13T06:18:54.480Z,-6.20
2022-12-13T06:21:27.269Z,-6.10
2022-12-13T06:23:55.825Z,-6.20
2022-12-13T06:26:23.673Z,-6.20
2022-12-13T06:28:52.853Z,-6.20
2022-12-13T06:31:20.716Z,-6.20
2022-12-13T06:33:48.583Z,-6.30
2022-12-13T06:36:16.404Z,-6.30
2022-12-13T06:38:44.262Z,-6.30
2022-12-13T06:41:17.060Z,-6.40
2022-12-13T06:43:45.792Z,-6.40
2022-12-13T06:46:16.360Z,-6.40
2022-12-13T06:48:44.987Z,-6.40
2022-12-13T06:51:13.131Z,-6.40
2022-12-13T06:53:51.028Z,-6.30
2022-12-13T06:56:18.921Z,-6.30
2022-12-13T06:58:46.935Z,-6.40
2022-12-13T07:01:24.045Z,-6.30
2022-12-13T07:03:55.805Z,-6.20
2022-12-13T07:06:25.492Z,-6.20
2022-12-13T07:08:55.470Z,-6.20
2022-12-13T07:11:25.637Z,-6.10
2022-12-13T07:13:53.908Z,-6.10
2022-12-13T07:16:24.037Z,-6.10
2022-12-13T07:19:01.115Z,-6.10
2022-12-13T07:21:30.455Z,-5.80
2022-12-13T07:23:58.570Z,-5.90
2022-12-13T07:26:26.624Z,-6.00
2022-12-13T07:28:55.550Z,-6.10
2022-12-13T07:31:26.720Z,-6.10
2022-12-13T07:33:54.592Z,-6.00
2022-12-13T07:36:24.076Z,-6.00
2022-12-13T07:38:53.260Z,-5.90
2022-12-13T07:41:23.485Z,-5.80
2022-12-13T07:43:55.477Z,-5.60
2022-12-13T07:46:31.783Z,-5.70
2022-12-13T07:49:01.503Z,-5.80
2022-12-13T07:51:29.771Z,-5.90
2022-12-13T07:53:58.302Z,-5.70
2022-12-13T07:56:26.122Z,-5.80
2022-12-13T07:58:53.962Z,-5.80
2022-12-13T08:01:21.871Z,-5.70
2022-12-13T08:03:51.284Z,-5.70
2022-12-13T08:06:19.914Z,-5.60
2022-12-13T08:08:50.690Z,-5.60
2022-12-13T08:11:18.589Z,-5.70
2022-12-13T08:13:46.474Z,-5.40
2022-12-13T08:16:28.072Z,-5.30
2022-12-13T08:19:00.981Z,-5.30
2022-12-13T08:24:24.545Z,-5.20
2022-12-13T08:26:52.448Z,-5.30
2022-12-13T08:29:32.114Z,-5.40
2022-12-13T08:32:02.280Z,-5.10
2022-12-13T08:34:31.744Z,-5.30
2022-12-13T08:37:02.651Z,-5.40
2022-12-13T08:39:33.964Z,-5.30
2022-12-13T08:42:15.337Z,-5.30
2022-12-13T08:44:45.287Z,-5.30
2022-12-13T08:47:13.402Z,-5.10
2022-12-13T08:49:55.153Z,-5.10
2022-12-13T08:52:24.011Z,-5.00
2022-12-13T08:54:52.343Z,-4.80
2022-12-13T08:57:20.375Z,-4.90
2022-12-13T08:59:48.281Z,-4.70
2022-12-13T09:02:16.822Z,-4.80
2022-12-13T09:04:44.727Z,-4.80
2022-12-13T09:07:14.088Z,-4.70
2022-12-13T09:09:41.943Z,-4.60
2022-12-13T09:12:10.218Z,-4.70
2022-12-13T09:14:45.042Z,-4.60
2022-12-13T09:17:14.710Z,-4.70
2022-12-13T09:19:58.047Z,-4.70
2022-12-13T09:22:33.448Z,-4.70
2022-12-13T09:25:02.798Z,-4.50
2022-12-13T09:27:39.566Z,-4.60
2022-12-13T09:30:12.866Z,-4.50
2022-12-13T09:32:41.422Z,-4.60
2022-12-13T09:35:09.927Z,-4.40
2022-12-13T09:37:45.529Z,-4.50
2022-12-13T09:40:26.076Z,-4.30
2022-12-13T09:43:12.414Z,-4.30
2022-12-13T09:45:46.352Z,-4.30
2022-12-13T09:48:22.782Z,-4.10
2022-12-13T09:51:16.553Z,-4.10
2022-12-13T09:53:42.371Z,-4.20
2022-12-13T09:56:13.346Z,-4.10
2022-12-13T09:58:41.224Z,-4.30
2022-12-13T10:01:12.681Z,-4.10
2022-12-13T10:03:42.524Z,-3.90
2022-12-13T10:06:23.095Z,-3.50
2022-12-13T10:08:57.184Z,-3.30
2022-12-13T10:11:32.700Z,-3.00
2022-12-13T10:14:05.452Z,-2.80
2022-12-13T10:16:43.706Z,-2.50
2022-12-13T10:19:29.098Z,-2.30
2022-12-13T10:22:01.690Z,-2.60
2022-12-13T10:24:49.805Z,-2.60
2022-12-13T10:27:19.639Z,-2.50
2022-12-13T10:30:08.271Z,-2.70
2022-12-13T10:32:46.884Z,-2.70
2022-12-13T10:35:24.126Z,-2.90
2022-12-13T10:37:52.365Z,-2.70
2022-12-13T10:40:34.617Z,-2.70
2022-12-13T10:43:12.722Z,-2.70
2022-12-13T10:45:41.231Z,-2.70
2022-12-13T10:48:21.077Z,-2.70
2022-12-13T10:50:59.832Z,-2.70
2022-12-13T10:53:32.050Z,-2.60
2022-12-13T10:56:02.804Z,-2.70
2022-12-13T10:58:39.300Z,-2.70
2022-12-13T11:01:23.834Z,-2.70
2022-12-13T11:04:01.846Z,-2.80
2022-12-13T11:06:43.509Z,-2.70
2022-12-13T11:09:23.124Z,-2.60
2022-12-13T11:11:58.137Z,-2.60
2022-12-13T11:14:32.099Z,-2.60
2022-12-13T11:17:06.460Z,-2.70
2022-12-13T11:19:40.031Z,-2.60
2022-12-13T11:22:10.381Z,-2.40
2022-12-13T11:24:42.164Z,-2.60
2022-12-13T11:27:38.548Z,-2.60
2022-12-13T11:30:16.464Z,-2.40
2022-12-13T11:33:07.441Z,-2.20
2022-12-13T11:35:46.700Z,-2.30
2022-12-13T11:38:26.357Z,-2.40
2022-12-13T11:40:59.863Z,-2.40
2022-12-13T11:43:34.964Z,-2.30
2022-12-13T11:46:14.470Z,-2.30
2022-12-13T11:48:47.341Z,-2.20
2022-12-13T11:51:20.739Z,-2.50
2022-12-13T11:53:56.214Z,-2.40
2022-12-13T11:56:27.484Z,-2.50
2022-12-13T11:59:07.116Z,-2.40
2022-12-13T12:01:47.307Z,-2.40
2022-12-13T12:04:24.684Z,-2.30
2022-12-13T12:07:04.992Z,-2.30
2022-12-13T12:09:51.389Z,-2.30
2022-12-13T12:12:27.516Z,-2.40
2022-12-13T12:15:05.160Z,-2.60
2022-12-13T12:17:43.269Z,-2.50
2022-12-13T12:20:14.374Z,-2.50
2022-12-13T12:23:00.188Z,-2.40
2022-12-13T12:25:36.621Z,-2.30
2022-12-13T12:28:15.021Z,-2.40
2022-12-13T12:30:54.500Z,-2.40
2022-12-13T12:33:33.688Z,-2.50
2022-12-13T12:36:22.978Z,-2.40
2022-12-13T12:39:20.468Z,-2.60
2022-12-13T12:42:07.652Z,-2.50
2022-12-13T12:44:45.364Z,-2.40
2022-12-13T12:48:03.603Z,-2.30
2022-12-13T12:50:36.292Z,-2.40
2022-12-13T12:53:32.996Z,-2.50
2022-12-13T12:56:16.957Z,-2.60
2022-12-13T12:58:51.442Z,-2.60
2022-12-13T13:01:34.680Z,-2.60
2022-12-13T13:04:10.261Z,-2.60
2022-12-13T13:06:42.618Z,-2.70
2022-12-13T13:09:12.653Z,-2.70
2022-12-13T13:11:43.610Z,-2.60
2022-12-13T13:14:33.027Z,-2.70
2022-12-13T13:17:01.902Z,-2.70
2022-12-13T13:19:46.679Z,-2.60
2022-12-13T13:22:32.615Z,-2.50
2022-12-13T13:25:21.364Z,-2.50
2022-12-13T13:27:52.226Z,-2.40
2022-12-13T13:30:21.873Z,-2.10
2022-12-13T13:32:51.517Z,-2.20
2022-12-13T13:35:56.501Z,-2.10
2022-12-13T13:38:44.897Z,-2.00
2022-12-13T13:41:41.138Z,-2.30
2022-12-13T13:44:35.329Z,-2.30
2022-12-13T13:47:13.275Z,-2.60
2022-12-13T13:49:52.425Z,-2.50
2022-12-13T13:52:26.652Z,-2.50
2022-12-13T13:55:38.476Z,-2.50
2022-12-13T13:58:39.961Z,-2.30
2022-12-13T14:01:44.066Z,-2.10
2022-12-13T14:04:48.189Z,-2.10
2022-12-13T14:07:48.505Z,-2.20
2022-12-13T14:10:30.103Z,-2.40
2022-12-13T14:13:38.737Z,-2.50
2022-12-13T14:17:14.241Z,-2.80
2022-12-13T14:20:18.007Z,-2.60
2022-12-13T14:22:49.836Z,-2.70
2022-12-13T14:25:46.434Z,-2.60
2022-12-13T14:28:27.320Z,-2.50
2022-12-13T14:30:57.426Z,-2.40
2022-12-13T14:33:28.165Z,-2.40
2022-12-13T14:35:57.783Z,-2.50
2022-12-13T14:38:30.862Z,-2.60
2022-12-13T14:41:02.511Z,-2.50
2022-12-13T14:43:32.268Z,-2.60
2022-12-13T14:46:02.296Z,-2.60
2022-12-13T14:48:33.275Z,-2.70
2022-12-13T14:51:01.183Z,-2.50
2022-12-13T14:53:34.405Z,-2.30
2022-12-13T14:56:09.677Z,-2.40
2022-12-13T14:58:38.360Z,-2.40
2022-12-13T15:01:06.949Z,-2.60
2022-12-13T15:03:35.847Z,-2.60
2022-12-13T15:06:04.531Z,-2.70
2022-12-13T15:08:35.106Z,-2.70
2022-12-13T15:11:08.103Z,-2.50
2022-12-13T15:13:42.158Z,-2.40
2022-12-13T15:16:25.555Z,-2.40
2022-12-13T15:19:10.768Z,-2.40
2022-12-13T15:21:38.989Z,-2.40
2022-12-13T15:24:08.028Z,-2.50
2022-12-13T15:26:36.222Z,-2.60
2022-12-13T15:29:10.428Z,-2.50
2022-12-13T15:31:39.824Z,-2.50
2022-12-13T15:34:29.472Z,-2.50
2022-12-13T15:37:01.130Z,-2.30
2022-12-13T15:39:31.044Z,-2.50
2022-12-13T15:41:59.599Z,-2.10
2022-12-13T15:44:31.646Z,-2.20
2022-12-13T15:47:03.883Z,-2.10
2022-12-13T15:49:35.153Z,-2.20
2022-12-13T15:52:05.073Z,-2.30
2022-12-13T15:54:33.938Z,-2.50
2022-12-13T15:57:12.386Z,-2.50
2022-12-13T15:59:42.973Z,-2.70
2022-12-13T16:02:16.918Z,-2.80
2022-12-13T16:04:44.875Z,-2.90
2022-12-13T16:07:24.248Z,-2.90
2022-12-13T16:09:54.707Z,-2.90
2022-12-13T16:12:25.743Z,-2.80
2022-12-13T16:15:13.887Z,-2.80
2022-12-13T16:18:06.423Z,-2.80
2022-12-13T16:20:34.589Z,-2.90
2022-12-13T16:23:08.939Z,-2.90
2022-12-13T16:25:37.335Z,-3.00
2022-12-13T16:28:05.551Z,-2.90
2022-12-13T16:30:59.619Z,-2.80
2022-12-13T16:33:27.933Z,-2.80
2022-12-13T16:35:56.394Z,-2.80
2022-12-13T16:38:26.744Z,-2.40
2022-12-13T16:40:56.514Z,-2.40
2022-12-13T16:43:33.442Z,-2.50
2022-12-13T16:47:13.384Z,-2.50
2022-12-13T16:48:54.511Z,-2.60
2022-12-13T16:51:23.127Z,-2.70
2022-12-13T16:53:51.383Z,-2.60
2022-12-13T16:56:21.718Z,-2.40
2022-12-13T16:58:50.564Z,-2.50
2022-12-13T17:01:21.335Z,-2.40
2022-12-13T17:03:49.463Z,-2.40
2022-12-13T17:06:22.530Z,-2.40
2022-12-13T17:08:50.374Z,-2.40
2022-12-13T17:11:18.688Z,-2.40
2022-12-13T17:13:48.177Z,-2.60
2022-12-13T17:16:16.463Z,-2.70
2022-12-13T17:18:45.799Z,-2.70
2022-12-13T17:21:14.391Z,-2.50
2022-12-13T17:23:42.239Z,-2.40
2022-12-13T17:26:11.995Z,-2.50
2022-12-13T17:28:39.847Z,-2.60
2022-12-13T17:31:08.890Z,-2.80
2022-12-13T17:33:37.243Z,-2.80
2022-12-13T17:36:08.562Z,-2.70
2022-12-13T17:38:36.462Z,-2.70
2022-12-13T17:41:04.937Z,-2.70
2022-12-13T17:43:35.279Z,-2.90
2022-12-13T17:46:05.759Z,-2.90
2022-12-13T17:48:40.188Z,-2.90
2022-12-13T17:51:11.589Z,-2.90
2022-12-13T17:53:40.971Z,-2.70
2022-12-13T17:56:11.913Z,-2.70
2022-12-13T17:58:40.086Z,-2.80
2022-12-13T18:01:13.195Z,-2.80
2022-12-13T18:03:41.338Z,-2.70
2022-12-13T18:06:10.964Z,-2.80
2022-12-13T18:08:40.402Z,-2.90
2022-12-13T18:13:57.740Z,-2.60
2022-12-13T18:16:33.958Z,-2.60
2022-12-13T18:19:05.958Z,-2.50
2022-12-13T18:21:36.991Z,-2.60
2022-12-13T18:24:06.384Z,-2.50
2022-12-13T18:26:35.236Z,-2.50
2022-12-13T18:29:03.440Z,-2.40
2022-12-13T18:31:31.590Z,-2.30
2022-12-13T18:33:59.508Z,-2.30
2022-12-13T18:36:27.803Z,-2.30
2022-12-13T18:38:57.464Z,-2.40
2022-12-13T18:41:28.276Z,-2.40
2022-12-13T18:43:59.727Z,-2.50
2022-12-13T18:46:29.330Z,-2.60
2022-12-13T18:48:57.827Z,-2.50
2022-12-13T18:51:26.215Z,-2.50
2022-12-13T18:53:54.529Z,-2.40
2022-12-13T18:56:24.118Z,-2.40
2022-12-13T18:58:53.398Z,-2.40
2022-12-13T19:01:22.864Z,-2.30
2022-12-13T19:03:52.264Z,-2.50
2022-12-13T19:06:22.674Z,-2.60
2022-12-13T19:08:51.381Z,-2.70
2022-12-13T19:11:20.086Z,-2.60
2022-12-13T19:13:49.827Z,-2.60
2022-12-13T19:16:20.083Z,-2.60
2022-12-13T19:18:48.358Z,-2.70
2022-12-13T19:21:18.229Z,-2.70
2022-12-13T19:23:51.308Z,-2.70
2022-12-13T19:26:23.726Z,-2.60
2022-12-13T19:28:53.118Z,-2.50
2022-12-13T19:31:25.461Z,-2.30
2022-12-13T19:33:56.945Z,-2.20
2022-12-13T19:36:25.188Z,-2.20
2022-12-13T19:38:53.052Z,-2.20
2022-12-13T19:41:21.822Z,-2.20
2022-12-13T19:43:52.946Z,-2.20
2022-12-13T19:46:22.875Z,-2.30
2022-12-13T19:48:51.112Z,-2.40
2022-12-13T19:51:18.971Z,-2.50
2022-12-13T19:53:46.792Z,-2.40
2022-12-13T19:56:17.639Z,-2.20
2022-12-13T19:58:46.287Z,-2.20
2022-12-13T20:01:14.979Z,-2.10
2022-12-13T20:03:46.256Z,-2.10
2022-12-13T20:06:16.980Z,-2.20
2022-12-13T20:08:45.148Z,-2.10
2022-12-13T20:11:15.887Z,-1.90
2022-12-13T20:13:44.068Z,-1.80
2022-12-13T20:16:17.068Z,-1.90
2022-12-13T20:18:46.945Z,-1.90
2022-12-13T20:21:15.950Z,-2.00
2022-12-13T20:23:48.990Z,-1.80
2022-12-13T20:26:19.984Z,-1.80
2022-12-13T20:28:48.058Z,-1.80
2022-12-13T20:31:18.137Z,-1.60
2022-12-13T20:33:48.175Z,-1.60
2022-12-13T20:36:26.107Z,-1.60
2022-12-13T20:38:56.029Z,-1.70
2022-12-13T20:41:24.913Z,-1.80
2022-12-13T20:43:53.729Z,-1.90
2022-12-13T20:46:22.581Z,-2.00
2022-12-13T20:48:52.793Z,-2.00
2022-12-13T20:51:22.523Z,-2.00
2022-12-13T20:53:51.428Z,-1.90
2022-12-13T20:56:21.385Z,-1.60
2022-12-13T20:58:50.386Z,-1.60
2022-12-13T21:01:20.567Z,-1.70
2022-12-13T21:03:49.293Z,-1.70
2022-12-13T21:06:18.481Z,-1.80
2022-12-13T21:08:52.453Z,-1.60
2022-12-13T21:11:27.369Z,-1.60
2022-12-13T21:14:03.744Z,-1.50
2022-12-13T21:16:38.754Z,-1.60
2022-12-13T21:19:07.537Z,-1.70
2022-12-13T21:21:37.394Z,-1.80
2022-12-13T21:24:05.953Z,-1.90
2022-12-13T21:26:36.022Z,-2.00
2022-12-13T21:29:07.733Z,-1.90
2022-12-13T21:31:36.580Z,-1.90
2022-12-13T21:34:05.687Z,-2.10
2022-12-13T21:36:36.350Z,-1.90
2022-12-13T21:39:06.486Z,-1.90
2022-12-13T21:41:34.711Z,-2.00
2022-12-13T21:44:02.797Z,-2.20
2022-12-13T21:47:02.937Z,-2.30
2022-12-13T21:49:19.155Z,-2.30
2022-12-13T21:51:48.771Z,-2.40
2022-12-13T21:54:17.933Z,-2.40
2022-12-13T21:57:03.394Z,-2.30
2022-12-13T21:59:31.833Z,-2.30
2022-12-13T22:02:14.752Z,-2.20
2022-12-13T22:04:44.766Z,-2.30
2022-12-13T22:07:15.725Z,-2.30
2022-12-13T22:09:44.194Z,-2.20
2022-12-13T22:12:19.991Z,-2.20
2022-12-13T22:14:48.529Z,-2.30
2022-12-13T22:17:17.027Z,-2.40
2022-12-13T22:19:48.546Z,-2.50
2022-12-13T22:22:19.026Z,-2.40
2022-12-13T22:24:52.938Z,-2.30
2022-12-13T22:27:23.704Z,-2.20
2022-12-13T22:29:52.394Z,-2.20
2022-12-13T22:32:20.597Z,-2.00
2022-12-13T22:34:48.638Z,-2.00
2022-12-13T22:37:17.976Z,-1.80
2022-12-13T22:39:45.877Z,-1.90
2022-12-13T22:42:13.791Z,-2.00
2022-12-13T22:44:41.657Z,-1.90
2022-12-13T22:47:09.497Z,-2.10
2022-12-13T22:49:37.369Z,-1.90
2022-12-13T22:52:05.546Z,-1.90
2022-12-13T22:54:35.960Z,-2.00
2022-12-13T22:57:03.972Z,-2.00
2022-12-13T22:59:31.985Z,-2.00
2022-12-13T23:02:02.593Z,-2.10
2022-12-13T23:04:31.694Z,-2.10
2022-12-13T23:06:59.644Z,-1.90
2022-12-13T23:09:27.760Z,-2.10
2022-12-13T23:12:14.574Z,-2.10
2022-12-13T23:14:42.474Z,-2.10
2022-12-13T23:17:10.370Z,-1.90
2022-12-13T23:19:48.976Z,-2.10
2022-12-13T23:22:19.011Z,-2.20
2022-12-13T23:24:46.850Z,-2.10
2022-12-13T23:27:16.104Z,-2.10
2022-12-13T23:29:43.979Z,-2.10
2022-12-13T23:32:12.129Z,-2.20
2022-12-13T23:34:39.993Z,-2.20
2022-12-13T23:37:07.878Z,-2.20
2022-12-13T23:39:35.728Z,-2.20
2022-12-13T23:42:03.563Z,-2.20
2022-12-13T23:44:32.762Z,-2.20
2022-12-13T23:47:00.608Z,-2.20
2022-12-13T23:49:28.983Z,-2.00
2022-12-13T23:51:56.818Z,-1.80
2022-12-13T23:54:24.672Z,-1.80
2022-12-13T23:56:52.542Z,-2.00
2022-12-13T23:59:20.385Z,-2.10
